sensor_id;sensor_type;location;lat;lon;timestamp;temperature;humidity
57026;DHT22;43961;52.940;6.834;2023-06-26T00:01:17;20.80;99.90
57026;DHT22;43961;52.940;6.834;2023-06-26T00:03:46;20.70;99.90
57026;DHT22;43961;52.940;6.834;2023-06-26T00:06:12;20.80;99.90
57026;DHT22;43961;52.940;6.834;2023-06-26T00:08:39;20.70;99.90
57026;DHT22;43961;52.940;6.834;2023-06-26T00:11:05;20.70;99.90
57026;DHT22;43961;52.940;6.834;2023-06-26T00:13:31;20.60;99.90
57026;DHT22;43961;52.940;6.834;2023-06-26T00:15:56;20.80;99.90
57026;DHT22;43961;52.940;6.834;2023-06-26T00:18:22;20.70;99.90
57026;DHT22;43961;52.940;6.834;2023-06-26T00:20:49;20.60;99.90
57026;DHT22;43961;52.940;6.834;2023-06-26T00:23:16;20.60;99.90
57026;DHT22;43961;52.940;6.834;2023-06-26T00:25:42;20.60;99.90
57026;DHT22;43961;52.940;6.834;2023-06-26T00:28:08;20.60;99.90
57026;DHT22;43961;52.940;6.834;2023-06-26T00:30:34;20.50;99.90
57026;DHT22;43961;52.940;6.834;2023-06-26T00:32:59;20.50;99.90
57026;DHT22;43961;52.940;6.834;2023-06-26T00:35:25;20.60;99.90
57026;DHT22;43961;52.940;6.834;2023-06-26T00:37:50;20.50;99.90
57026;DHT22;43961;52.940;6.834;2023-06-26T00:40:16;20.50;99.90
57026;DHT22;43961;52.940;6.834;2023-06-26T00:42:42;20.60;99.90
57026;DHT22;43961;52.940;6.834;2023-06-26T00:45:08;20.50;99.90
57026;DHT22;43961;52.940;6.834;2023-06-26T00:47:33;20.50;99.90
57026;DHT22;43961;52.940;6.834;2023-06-26T00:49:59;20.40;99.90
57026;DHT22;43961;52.940;6.834;2023-06-26T00:52:25;20.40;99.90
57026;DHT22;43961;52.940;6.834;2023-06-26T00:54:51;20.40;99.90
57026;DHT22;43961;52.940;6.834;2023-06-26T00:57:18;20.40;99.90
57026;DHT22;43961;52.940;6.834;2023-06-26T00:59:44;20.30;99.90
57026;DHT22;43961;52.940;6.834;2023-06-26T01:02:09;20.30;99.90
57026;DHT22;43961;52.940;6.834;2023-06-26T01:04:35;20.30;99.90
57026;DHT22;43961;52.940;6.834;2023-06-26T01:07:02;20.40;99.90
57026;DHT22;43961;52.940;6.834;2023-06-26T01:09:30;20.30;99.90
57026;DHT22;43961;52.940;6.834;2023-06-26T01:11:56;20.30;99.90
57026;DHT22;43961;52.940;6.834;2023-06-26T01:14:22;20.40;99.90
57026;DHT22;43961;52.940;6.834;2023-06-26T01:16:49;20.30;99.90
57026;DHT22;43961;52.940;6.834;2023-06-26T01:19:24;20.20;99.90
57026;DHT22;43961;52.940;6.834;2023-06-26T01:22:17;20.30;99.90
57026;DHT22;43961;52.940;6.834;2023-06-26T01:25:17;20.10;99.90
57026;DHT22;43961;52.940;6.834;2023-06-26T01:27:48;20.10;99.90
57026;DHT22;43961;52.940;6.834;2023-06-26T01:30:14;20.10;99.90
57026;DHT22;43961;52.940;6.834;2023-06-26T01:32:41;20.10;99.90
57026;DHT22;43961;52.940;6.834;2023-06-26T01:35:08;20.10;99.90
57026;DHT22;43961;52.940;6.834;2023-06-26T01:37:34;20.00;99.90
57026;DHT22;43961;52.940;6.834;2023-06-26T01:40:00;20.00;99.90
57026;DHT22;43961;52.940;6.834;2023-06-26T01:42:26;19.90;99.90
57026;DHT22;43961;52.940;6.834;2023-06-26T01:44:55;19.90;99.90
57026;DHT22;43961;52.940;6.834;2023-06-26T01:47:23;19.90;99.90
57026;DHT22;43961;52.940;6.834;2023-06-26T01:50:02;19.90;99.90
57026;DHT22;43961;52.940;6.834;2023-06-26T01:52:54;19.90;99.90
57026;DHT22;43961;52.940;6.834;2023-06-26T01:58:09;19.90;99.90
57026;DHT22;43961;52.940;6.834;2023-06-26T02:00:36;19.90;99.90
57026;DHT22;43961;52.940;6.834;2023-06-26T02:03:02;19.80;99.90
57026;DHT22;43961;52.940;6.834;2023-06-26T02:05:28;19.70;99.90
57026;DHT22;43961;52.940;6.834;2023-06-26T02:07:56;19.80;99.90
57026;DHT22;43961;52.940;6.834;2023-06-26T02:10:22;19.70;99.90
57026;DHT22;43961;52.940;6.834;2023-06-26T02:12:47;19.70;99.90
57026;DHT22;43961;52.940;6.834;2023-06-26T02:15:13;19.60;99.90
57026;DHT22;43961;52.940;6.834;2023-06-26T02:17:39;19.90;99.90
57026;DHT22;43961;52.940;6.834;2023-06-26T02:20:05;19.50;99.90
57026;DHT22;43961;52.940;6.834;2023-06-26T02:22:31;19.60;99.90
57026;DHT22;43961;52.940;6.834;2023-06-26T02:24:57;19.40;99.90
57026;DHT22;43961;52.940;6.834;2023-06-26T02:27:22;19.30;99.90
57026;DHT22;43961;52.940;6.834;2023-06-26T02:29:48;19.30;99.90
57026;DHT22;43961;52.940;6.834;2023-06-26T02:32:14;19.30;99.90
57026;DHT22;43961;52.940;6.834;2023-06-26T02:34:39;19.20;99.90
57026;DHT22;43961;52.940;6.834;2023-06-26T02:37:05;19.30;99.90
57026;DHT22;43961;52.940;6.834;2023-06-26T02:39:33;19.30;99.90
57026;DHT22;43961;52.940;6.834;2023-06-26T02:42:00;19.30;99.90
57026;DHT22;43961;52.940;6.834;2023-06-26T02:44:25;19.30;99.90
57026;DHT22;43961;52.940;6.834;2023-06-26T02:46:51;19.10;99.90
57026;DHT22;43961;52.940;6.834;2023-06-26T02:49:18;19.20;99.90
57026;DHT22;43961;52.940;6.834;2023-06-26T02:51:44;19.10;99.90
57026;DHT22;43961;52.940;6.834;2023-06-26T02:54:10;19.20;99.90
57026;DHT22;43961;52.940;6.834;2023-06-26T02:56:35;19.20;99.90
57026;DHT22;43961;52.940;6.834;2023-06-26T02:59:01;19.20;99.90
57026;DHT22;43961;52.940;6.834;2023-06-26T03:01:27;19.10;99.90
57026;DHT22;43961;52.940;6.834;2023-06-26T03:03:52;19.00;99.90
57026;DHT22;43961;52.940;6.834;2023-06-26T03:06:18;19.10;99.90
57026;DHT22;43961;52.940;6.834;2023-06-26T03:08:45;19.20;99.90
57026;DHT22;43961;52.940;6.834;2023-06-26T03:11:10;19.10;99.90
57026;DHT22;43961;52.940;6.834;2023-06-26T03:13:36;19.30;99.90
57026;DHT22;43961;52.940;6.834;2023-06-26T03:16:03;19.20;99.90
57026;DHT22;43961;52.940;6.834;2023-06-26T03:18:29;19.40;99.90
57026;DHT22;43961;52.940;6.834;2023-06-26T03:20:55;19.50;99.90
57026;DHT22;43961;52.940;6.834;2023-06-26T03:23:21;19.40;99.90
57026;DHT22;43961;52.940;6.834;2023-06-26T03:25:48;19.50;99.90
57026;DHT22;43961;52.940;6.834;2023-06-26T03:28:14;19.50;99.90
57026;DHT22;43961;52.940;6.834;2023-06-26T03:30:39;19.50;99.90
57026;DHT22;43961;52.940;6.834;2023-06-26T03:33:05;19.80;99.90
57026;DHT22;43961;52.940;6.834;2023-06-26T03:35:31;19.90;99.90
57026;DHT22;43961;52.940;6.834;2023-06-26T03:37:57;19.80;99.90
57026;DHT22;43961;52.940;6.834;2023-06-26T03:40:23;19.90;99.90
57026;DHT22;43961;52.940;6.834;2023-06-26T03:42:49;19.80;99.90
57026;DHT22;43961;52.940;6.834;2023-06-26T03:45:14;20.00;99.90
57026;DHT22;43961;52.940;6.834;2023-06-26T03:47:40;19.90;99.90
57026;DHT22;43961;52.940;6.834;2023-06-26T03:50:06;20.10;99.90
57026;DHT22;43961;52.940;6.834;2023-06-26T03:52:32;20.00;99.90
57026;DHT22;43961;52.940;6.834;2023-06-26T03:54:58;20.20;99.90
57026;DHT22;43961;52.940;6.834;2023-06-26T03:57:24;20.10;99.90
57026;DHT22;43961;52.940;6.834;2023-06-26T03:59:51;20.30;99.90
57026;DHT22;43961;52.940;6.834;2023-06-26T04:02:17;20.20;99.90
57026;DHT22;43961;52.940;6.834;2023-06-26T04:04:44;20.40;99.90
57026;DHT22;43961;52.940;6.834;2023-06-26T04:07:10;20.20;99.90
57026;DHT22;43961;52.940;6.834;2023-06-26T04:09:36;20.20;99.90
57026;DHT22;43961;52.940;6.834;2023-06-26T04:12:02;20.30;99.90
57026;DHT22;43961;52.940;6.834;2023-06-26T04:14:28;20.40;99.90
57026;DHT22;43961;52.940;6.834;2023-06-26T04:16:53;20.40;99.90
57026;DHT22;43961;52.940;6.834;2023-06-26T04:19:19;20.50;99.90
57026;DHT22;43961;52.940;6.834;2023-06-26T04:21:45;20.50;99.90
57026;DHT22;43961;52.940;6.834;2023-06-26T04:24:11;20.60;99.90
57026;DHT22;43961;52.940;6.834;2023-06-26T04:26:37;20.60;99.90
57026;DHT22;43961;52.940;6.834;2023-06-26T04:29:07;20.60;99.90
57026;DHT22;43961;52.940;6.834;2023-06-26T04:31:32;20.60;99.90
57026;DHT22;43961;52.940;6.834;2023-06-26T04:33:58;20.70;99.90
57026;DHT22;43961;52.940;6.834;2023-06-26T04:36:25;20.80;99.90
57026;DHT22;43961;52.940;6.834;2023-06-26T04:38:54;20.70;99.90
57026;DHT22;43961;52.940;6.834;2023-06-26T04:41:21;20.70;99.90
57026;DHT22;43961;52.940;6.834;2023-06-26T04:43:46;20.80;99.90
57026;DHT22;43961;52.940;6.834;2023-06-26T04:46:12;20.90;99.90
57026;DHT22;43961;52.940;6.834;2023-06-26T04:48:38;20.80;99.90
57026;DHT22;43961;52.940;6.834;2023-06-26T04:51:03;20.90;99.90
57026;DHT22;43961;52.940;6.834;2023-06-26T04:53:29;20.80;99.90
57026;DHT22;43961;52.940;6.834;2023-06-26T04:55:55;20.80;99.90
57026;DHT22;43961;52.940;6.834;2023-06-26T04:58:21;21.00;99.90
57026;DHT22;43961;52.940;6.834;2023-06-26T05:00:47;20.90;99.90
57026;DHT22;43961;52.940;6.834;2023-06-26T05:03:14;20.90;99.90
57026;DHT22;43961;52.940;6.834;2023-06-26T05:05:39;21.00;99.90
57026;DHT22;43961;52.940;6.834;2023-06-26T05:08:24;21.00;99.90
57026;DHT22;43961;52.940;6.834;2023-06-26T05:10:52;21.00;99.90
57026;DHT22;43961;52.940;6.834;2023-06-26T05:13:19;21.20;99.90
57026;DHT22;43961;52.940;6.834;2023-06-26T05:15:46;21.30;99.90
57026;DHT22;43961;52.940;6.834;2023-06-26T05:18:12;21.20;99.90
57026;DHT22;43961;52.940;6.834;2023-06-26T05:20:37;21.50;99.90
57026;DHT22;43961;52.940;6.834;2023-06-26T05:23:03;21.40;99.90
57026;DHT22;43961;52.940;6.834;2023-06-26T05:25:30;21.50;99.90
57026;DHT22;43961;52.940;6.834;2023-06-26T05:27:57;21.60;99.90
57026;DHT22;43961;52.940;6.834;2023-06-26T05:30:24;21.70;99.90
57026;DHT22;43961;52.940;6.834;2023-06-26T05:32:53;21.70;99.90
57026;DHT22;43961;52.940;6.834;2023-06-26T05:35:23;21.70;99.90
57026;DHT22;43961;52.940;6.834;2023-06-26T05:37:49;21.80;99.90
57026;DHT22;43961;52.940;6.834;2023-06-26T05:40:17;21.90;99.90
57026;DHT22;43961;52.940;6.834;2023-06-26T05:42:43;21.80;99.90
57026;DHT22;43961;52.940;6.834;2023-06-26T05:45:10;21.70;99.90
57026;DHT22;43961;52.940;6.834;2023-06-26T05:47:36;21.70;99.90
57026;DHT22;43961;52.940;6.834;2023-06-26T05:50:02;21.90;99.90
57026;DHT22;43961;52.940;6.834;2023-06-26T05:52:29;21.70;99.90
57026;DHT22;43961;52.940;6.834;2023-06-26T05:54:55;21.70;99.90
57026;DHT22;43961;52.940;6.834;2023-06-26T05:57:25;22.00;99.90
57026;DHT22;43961;52.940;6.834;2023-06-26T05:59:51;21.90;99.90
57026;DHT22;43961;52.940;6.834;2023-06-26T06:02:17;21.90;99.90
57026;DHT22;43961;52.940;6.834;2023-06-26T06:04:42;21.90;99.90
57026;DHT22;43961;52.940;6.834;2023-06-26T06:07:08;21.90;99.90
57026;DHT22;43961;52.940;6.834;2023-06-26T06:09:34;22.10;99.90
57026;DHT22;43961;52.940;6.834;2023-06-26T06:12:00;21.90;99.90
57026;DHT22;43961;52.940;6.834;2023-06-26T06:14:27;21.90;99.90
57026;DHT22;43961;52.940;6.834;2023-06-26T06:16:53;21.90;99.90
57026;DHT22;43961;52.940;6.834;2023-06-26T06:19:19;21.80;99.90
57026;DHT22;43961;52.940;6.834;2023-06-26T06:21:45;21.80;99.90
57026;DHT22;43961;52.940;6.834;2023-06-26T06:24:10;21.60;99.90
57026;DHT22;43961;52.940;6.834;2023-06-26T06:26:36;21.70;99.90
57026;DHT22;43961;52.940;6.834;2023-06-26T06:29:03;21.70;99.90
57026;DHT22;43961;52.940;6.834;2023-06-26T06:31:30;21.50;99.90
57026;DHT22;43961;52.940;6.834;2023-06-26T06:33:55;21.70;99.90
57026;DHT22;43961;52.940;6.834;2023-06-26T06:36:21;21.60;99.90
57026;DHT22;43961;52.940;6.834;2023-06-26T06:38:47;21.70;99.90
57026;DHT22;43961;52.940;6.834;2023-06-26T06:41:13;21.80;99.90
57026;DHT22;43961;52.940;6.834;2023-06-26T06:43:39;21.90;99.90
57026;DHT22;43961;52.940;6.834;2023-06-26T06:46:05;22.00;99.90
57026;DHT22;43961;52.940;6.834;2023-06-26T06:48:31;22.30;99.90
57026;DHT22;43961;52.940;6.834;2023-06-26T06:50:57;22.10;99.90
57026;DHT22;43961;52.940;6.834;2023-06-26T06:53:23;22.20;99.90
57026;DHT22;43961;52.940;6.834;2023-06-26T06:55:52;22.30;99.90
57026;DHT22;43961;52.940;6.834;2023-06-26T06:58:17;22.30;99.90
57026;DHT22;43961;52.940;6.834;2023-06-26T07:00:46;22.30;99.90
57026;DHT22;43961;52.940;6.834;2023-06-26T07:03:15;22.50;99.90
57026;DHT22;43961;52.940;6.834;2023-06-26T07:05:41;22.60;99.90
57026;DHT22;43961;52.940;6.834;2023-06-26T07:08:07;22.60;99.90
57026;DHT22;43961;52.940;6.834;2023-06-26T07:10:34;22.80;99.90
57026;DHT22;43961;52.940;6.834;2023-06-26T07:12:59;23.00;99.90
57026;DHT22;43961;52.940;6.834;2023-06-26T07:15:25;23.30;99.90
57026;DHT22;43961;52.940;6.834;2023-06-26T07:17:51;23.60;99.90
57026;DHT22;43961;52.940;6.834;2023-06-26T07:20:17;23.60;99.90
57026;DHT22;43961;52.940;6.834;2023-06-26T07:22:43;23.80;99.90
57026;DHT22;43961;52.940;6.834;2023-06-26T07:25:10;24.00;99.90
57026;DHT22;43961;52.940;6.834;2023-06-26T07:27:40;24.10;99.90
57026;DHT22;43961;52.940;6.834;2023-06-26T07:30:06;24.30;99.90
57026;DHT22;43961;52.940;6.834;2023-06-26T07:32:34;24.50;99.90
57026;DHT22;43961;52.940;6.834;2023-06-26T07:35:00;24.90;99.90
57026;DHT22;43961;52.940;6.834;2023-06-26T07:37:26;25.00;99.90
57026;DHT22;43961;52.940;6.834;2023-06-26T07:39:52;25.20;99.90
57026;DHT22;43961;52.940;6.834;2023-06-26T07:42:17;25.40;99.90
57026;DHT22;43961;52.940;6.834;2023-06-26T07:44:43;25.50;99.90
57026;DHT22;43961;52.940;6.834;2023-06-26T07:47:09;25.80;99.90
57026;DHT22;43961;52.940;6.834;2023-06-26T07:49:35;25.90;99.90
57026;DHT22;43961;52.940;6.834;2023-06-26T07:52:01;26.20;99.90
57026;DHT22;43961;52.940;6.834;2023-06-26T07:54:27;26.40;99.90
57026;DHT22;43961;52.940;6.834;2023-06-26T07:56:53;26.60;99.90
57026;DHT22;43961;52.940;6.834;2023-06-26T07:59:23;26.90;99.90
57026;DHT22;43961;52.940;6.834;2023-06-26T08:01:53;27.20;99.90
57026;DHT22;43961;52.940;6.834;2023-06-26T08:04:21;27.30;99.90
57026;DHT22;43961;52.940;6.834;2023-06-26T08:06:54;27.50;99.90
57026;DHT22;43961;52.940;6.834;2023-06-26T08:09:22;27.80;99.90
57026;DHT22;43961;52.940;6.834;2023-06-26T08:11:49;27.80;99.90
57026;DHT22;43961;52.940;6.834;2023-06-26T08:14:16;27.80;99.90
57026;DHT22;43961;52.940;6.834;2023-06-26T08:16:42;27.90;99.90
57026;DHT22;43961;52.940;6.834;2023-06-26T08:19:15;27.90;99.90
57026;DHT22;43961;52.940;6.834;2023-06-26T08:21:41;27.90;99.90
57026;DHT22;43961;52.940;6.834;2023-06-26T08:24:13;28.00;99.90
57026;DHT22;43961;52.940;6.834;2023-06-26T08:26:39;28.20;99.90
57026;DHT22;43961;52.940;6.834;2023-06-26T08:29:05;28.20;99.90
57026;DHT22;43961;52.940;6.834;2023-06-26T08:31:36;28.30;99.90
57026;DHT22;43961;52.940;6.834;2023-06-26T08:34:03;28.50;99.90
57026;DHT22;43961;52.940;6.834;2023-06-26T08:36:29;28.50;99.90
57026;DHT22;43961;52.940;6.834;2023-06-26T08:38:54;28.60;99.90
57026;DHT22;43961;52.940;6.834;2023-06-26T08:41:20;28.60;99.90
57026;DHT22;43961;52.940;6.834;2023-06-26T08:43:47;28.50;99.90
57026;DHT22;43961;52.940;6.834;2023-06-26T08:46:14;28.60;99.90
57026;DHT22;43961;52.940;6.834;2023-06-26T08:48:42;28.70;99.90
57026;DHT22;43961;52.940;6.834;2023-06-26T08:51:12;28.60;99.90
57026;DHT22;43961;52.940;6.834;2023-06-26T08:53:59;28.50;99.90
57026;DHT22;43961;52.940;6.834;2023-06-26T08:56:31;28.40;99.90
57026;DHT22;43961;52.940;6.834;2023-06-26T08:58:58;28.70;99.90
57026;DHT22;43961;52.940;6.834;2023-06-26T09:01:25;29.00;99.90
57026;DHT22;43961;52.940;6.834;2023-06-26T09:03:51;29.10;99.90
57026;DHT22;43961;52.940;6.834;2023-06-26T09:06:17;29.00;99.90
57026;DHT22;43961;52.940;6.834;2023-06-26T09:08:46;28.70;99.90
57026;DHT22;43961;52.940;6.834;2023-06-26T09:11:11;28.70;99.90
57026;DHT22;43961;52.940;6.834;2023-06-26T09:13:37;28.70;99.90
57026;DHT22;43961;52.940;6.834;2023-06-26T09:16:07;28.50;99.90
57026;DHT22;43961;52.940;6.834;2023-06-26T09:18:33;28.60;99.90
57026;DHT22;43961;52.940;6.834;2023-06-26T09:20:59;28.80;99.90
57026;DHT22;43961;52.940;6.834;2023-06-26T09:23:25;28.70;99.90
57026;DHT22;43961;52.940;6.834;2023-06-26T09:25:51;28.40;99.90
57026;DHT22;43961;52.940;6.834;2023-06-26T09:28:17;28.30;99.90
57026;DHT22;43961;52.940;6.834;2023-06-26T09:30:44;28.20;99.90
57026;DHT22;43961;52.940;6.834;2023-06-26T09:35:39;28.70;99.90
57026;DHT22;43961;52.940;6.834;2023-06-26T09:38:05;28.80;99.90
57026;DHT22;43961;52.940;6.834;2023-06-26T09:40:32;28.80;99.90
57026;DHT22;43961;52.940;6.834;2023-06-26T09:43:04;28.50;99.90
57026;DHT22;43961;52.940;6.834;2023-06-26T09:45:34;28.30;99.90
57026;DHT22;43961;52.940;6.834;2023-06-26T09:48:04;28.00;99.90
57026;DHT22;43961;52.940;6.834;2023-06-26T09:50:32;28.00;99.90
57026;DHT22;43961;52.940;6.834;2023-06-26T09:53:10;28.00;99.90
57026;DHT22;43961;52.940;6.834;2023-06-26T09:55:36;27.70;99.90
57026;DHT22;43961;52.940;6.834;2023-06-26T09:58:03;27.40;99.90
57026;DHT22;43961;52.940;6.834;2023-06-26T10:00:30;27.30;99.90
57026;DHT22;43961;52.940;6.834;2023-06-26T10:02:56;27.00;99.90
57026;DHT22;43961;52.940;6.834;2023-06-26T10:05:22;26.90;99.90
57026;DHT22;43961;52.940;6.834;2023-06-26T10:07:48;26.90;99.90
57026;DHT22;43961;52.940;6.834;2023-06-26T10:10:15;27.20;99.90
57026;DHT22;43961;52.940;6.834;2023-06-26T10:12:45;27.20;99.90
57026;DHT22;43961;52.940;6.834;2023-06-26T10:15:13;27.40;99.90
57026;DHT22;43961;52.940;6.834;2023-06-26T10:17:43;27.60;99.80
57026;DHT22;43961;52.940;6.834;2023-06-26T10:20:09;27.80;99.90
57026;DHT22;43961;52.940;6.834;2023-06-26T10:22:44;27.90;99.90
57026;DHT22;43961;52.940;6.834;2023-06-26T10:25:10;27.90;99.90
57026;DHT22;43961;52.940;6.834;2023-06-26T10:27:40;27.80;99.40
57026;DHT22;43961;52.940;6.834;2023-06-26T10:30:14;27.90;99.80
57026;DHT22;43961;52.940;6.834;2023-06-26T10:32:41;28.00;99.10
57026;DHT22;43961;52.940;6.834;2023-06-26T10:35:08;28.30;99.10
57026;DHT22;43961;52.940;6.834;2023-06-26T10:37:46;28.60;99.10
57026;DHT22;43961;52.940;6.834;2023-06-26T10:40:13;29.00;98.80
57026;DHT22;43961;52.940;6.834;2023-06-26T10:42:39;29.10;98.20
57026;DHT22;43961;52.940;6.834;2023-06-26T10:45:10;29.40;97.70
57026;DHT22;43961;52.940;6.834;2023-06-26T10:47:37;29.20;97.60
57026;DHT22;43961;52.940;6.834;2023-06-26T10:50:20;29.20;97.30
57026;DHT22;43961;52.940;6.834;2023-06-26T10:53:21;29.00;97.60
57026;DHT22;43961;52.940;6.834;2023-06-26T10:56:01;28.80;96.90
57026;DHT22;43961;52.940;6.834;2023-06-26T11:03:39;28.20;96.70
57026;DHT22;43961;52.940;6.834;2023-06-26T11:06:12;28.20;97.10
57026;DHT22;43961;52.940;6.834;2023-06-26T11:11:15;28.50;97.10
57026;DHT22;43961;52.940;6.834;2023-06-26T11:13:41;28.40;96.40
57026;DHT22;43961;52.940;6.834;2023-06-26T11:16:07;28.60;96.20
57026;DHT22;43961;52.940;6.834;2023-06-26T11:18:33;28.70;96.50
57026;DHT22;43961;52.940;6.834;2023-06-26T11:21:09;28.50;95.30
57026;DHT22;43961;52.940;6.834;2023-06-26T11:23:36;28.50;96.00
57026;DHT22;43961;52.940;6.834;2023-06-26T11:26:19;28.60;95.90
57026;DHT22;43961;52.940;6.834;2023-06-26T11:28:52;28.70;95.90
57026;DHT22;43961;52.940;6.834;2023-06-26T11:33:50;28.70;96.00
57026;DHT22;43961;52.940;6.834;2023-06-26T11:36:15;28.70;94.40
57026;DHT22;43961;52.940;6.834;2023-06-26T11:38:41;28.90;95.30
57026;DHT22;43961;52.940;6.834;2023-06-26T11:41:06;29.00;95.10
57026;DHT22;43961;52.940;6.834;2023-06-26T11:43:34;29.10;94.30
57026;DHT22;43961;52.940;6.834;2023-06-26T11:46:00;29.00;92.40
57026;DHT22;43961;52.940;6.834;2023-06-26T11:48:26;29.10;92.40
57026;DHT22;43961;52.940;6.834;2023-06-26T11:50:51;29.30;93.70
57026;DHT22;43961;52.940;6.834;2023-06-26T11:53:17;29.00;94.30
57026;DHT22;43961;52.940;6.834;2023-06-26T11:55:43;29.10;94.20
57026;DHT22;43961;52.940;6.834;2023-06-26T11:58:08;29.10;94.30
57026;DHT22;43961;52.940;6.834;2023-06-26T12:00:34;29.10;93.60
57026;DHT22;43961;52.940;6.834;2023-06-26T12:03:01;29.20;92.40
57026;DHT22;43961;52.940;6.834;2023-06-26T12:05:28;29.40;93.60
57026;DHT22;43961;52.940;6.834;2023-06-26T12:07:56;29.30;92.40
57026;DHT22;43961;52.940;6.834;2023-06-26T12:10:22;29.40;92.90
57026;DHT22;43961;52.940;6.834;2023-06-26T12:12:48;29.60;93.00
57026;DHT22;43961;52.940;6.834;2023-06-26T12:15:15;29.50;93.30
57026;DHT22;43961;52.940;6.834;2023-06-26T12:17:41;29.60;93.50
57026;DHT22;43961;52.940;6.834;2023-06-26T12:20:18;29.70;93.00
57026;DHT22;43961;52.940;6.834;2023-06-26T12:22:46;29.90;93.10
57026;DHT22;43961;52.940;6.834;2023-06-26T12:25:13;30.00;93.20
57026;DHT22;43961;52.940;6.834;2023-06-26T12:27:38;29.90;93.00
57026;DHT22;43961;52.940;6.834;2023-06-26T12:30:04;29.90;92.90
57026;DHT22;43961;52.940;6.834;2023-06-26T12:32:31;29.70;92.50
57026;DHT22;43961;52.940;6.834;2023-06-26T12:34:57;29.60;90.70
57026;DHT22;43961;52.940;6.834;2023-06-26T12:37:23;29.40;91.10
57026;DHT22;43961;52.940;6.834;2023-06-26T12:39:53;29.20;91.70
57026;DHT22;43961;52.940;6.834;2023-06-26T12:42:21;29.10;91.80
57026;DHT22;43961;52.940;6.834;2023-06-26T12:44:47;29.20;92.10
57026;DHT22;43961;52.940;6.834;2023-06-26T12:47:15;29.10;92.00
57026;DHT22;43961;52.940;6.834;2023-06-26T12:49:43;29.20;92.30
57026;DHT22;43961;52.940;6.834;2023-06-26T12:52:14;29.40;91.90
57026;DHT22;43961;52.940;6.834;2023-06-26T12:54:42;29.50;92.00
57026;DHT22;43961;52.940;6.834;2023-06-26T12:57:09;29.40;90.60
57026;DHT22;43961;52.940;6.834;2023-06-26T12:59:36;29.20;90.70
57026;DHT22;43961;52.940;6.834;2023-06-26T13:02:02;29.10;91.20
57026;DHT22;43961;52.940;6.834;2023-06-26T13:04:28;29.20;91.00
57026;DHT22;43961;52.940;6.834;2023-06-26T13:06:53;29.30;91.30
57026;DHT22;43961;52.940;6.834;2023-06-26T13:09:23;29.20;91.10
57026;DHT22;43961;52.940;6.834;2023-06-26T13:11:49;29.20;91.40
57026;DHT22;43961;52.940;6.834;2023-06-26T13:14:15;29.10;91.50
57026;DHT22;43961;52.940;6.834;2023-06-26T13:16:41;29.20;91.60
57026;DHT22;43961;52.940;6.834;2023-06-26T13:19:07;29.00;91.20
57026;DHT22;43961;52.940;6.834;2023-06-26T13:21:33;29.10;91.70
57026;DHT22;43961;52.940;6.834;2023-06-26T13:23:59;29.00;91.20
57026;DHT22;43961;52.940;6.834;2023-06-26T13:26:25;28.80;91.30
57026;DHT22;43961;52.940;6.834;2023-06-26T13:28:52;28.80;91.70
57026;DHT22;43961;52.940;6.834;2023-06-26T13:31:18;28.80;91.90
57026;DHT22;43961;52.940;6.834;2023-06-26T13:33:44;28.80;91.50
57026;DHT22;43961;52.940;6.834;2023-06-26T13:36:11;28.80;91.40
57026;DHT22;43961;52.940;6.834;2023-06-26T13:38:37;28.80;91.90
57026;DHT22;43961;52.940;6.834;2023-06-26T13:41:02;28.50;92.10
57026;DHT22;43961;52.940;6.834;2023-06-26T13:43:29;28.60;92.30
57026;DHT22;43961;52.940;6.834;2023-06-26T13:45:55;28.30;92.10
57026;DHT22;43961;52.940;6.834;2023-06-26T13:48:21;28.10;91.90
57026;DHT22;43961;52.940;6.834;2023-06-26T13:50:50;28.00;92.00
57026;DHT22;43961;52.940;6.834;2023-06-26T13:53:15;28.00;92.00
57026;DHT22;43961;52.940;6.834;2023-06-26T13:55:41;28.10;92.30
57026;DHT22;43961;52.940;6.834;2023-06-26T13:58:07;27.90;92.30
57026;DHT22;43961;52.940;6.834;2023-06-26T14:00:34;27.90;92.70
57026;DHT22;43961;52.940;6.834;2023-06-26T14:03:01;28.00;92.80
57026;DHT22;43961;52.940;6.834;2023-06-26T14:05:27;28.10;92.50
57026;DHT22;43961;52.940;6.834;2023-06-26T14:07:53;28.10;92.30
57026;DHT22;43961;52.940;6.834;2023-06-26T14:10:20;28.20;91.80
57026;DHT22;43961;52.940;6.834;2023-06-26T14:12:46;28.00;92.30
57026;DHT22;43961;52.940;6.834;2023-06-26T14:15:13;27.60;92.00
57026;DHT22;43961;52.940;6.834;2023-06-26T14:17:38;27.60;92.50
57026;DHT22;43961;52.940;6.834;2023-06-26T14:20:08;27.80;92.80
57026;DHT22;43961;52.940;6.834;2023-06-26T14:22:41;27.90;92.60
57026;DHT22;43961;52.940;6.834;2023-06-26T14:25:08;27.80;91.90
57026;DHT22;43961;52.940;6.834;2023-06-26T14:27:34;27.60;92.30
57026;DHT22;43961;52.940;6.834;2023-06-26T14:30:01;27.60;92.60
57026;DHT22;43961;52.940;6.834;2023-06-26T14:32:27;27.40;92.60
57026;DHT22;43961;52.940;6.834;2023-06-26T14:34:52;27.20;92.70
57026;DHT22;43961;52.940;6.834;2023-06-26T14:37:18;27.00;93.00
57026;DHT22;43961;52.940;6.834;2023-06-26T14:39:45;27.00;93.10
57026;DHT22;43961;52.940;6.834;2023-06-26T14:42:10;26.90;92.70
57026;DHT22;43961;52.940;6.834;2023-06-26T14:44:36;27.00;92.70
57026;DHT22;43961;52.940;6.834;2023-06-26T14:47:02;26.90;92.90
57026;DHT22;43961;52.940;6.834;2023-06-26T14:49:28;27.00;92.80
57026;DHT22;43961;52.940;6.834;2023-06-26T14:51:53;26.90;93.20
57026;DHT22;43961;52.940;6.834;2023-06-26T14:54:19;27.00;92.50
57026;DHT22;43961;52.940;6.834;2023-06-26T14:56:45;27.00;92.80
57026;DHT22;43961;52.940;6.834;2023-06-26T14:59:11;26.90;92.80
57026;DHT22;43961;52.940;6.834;2023-06-26T15:01:38;27.10;92.70
57026;DHT22;43961;52.940;6.834;2023-06-26T15:04:05;27.10;92.70
57026;DHT22;43961;52.940;6.834;2023-06-26T15:06:31;26.80;93.00
57026;DHT22;43961;52.940;6.834;2023-06-26T15:09:00;26.80;92.70
57026;DHT22;43961;52.940;6.834;2023-06-26T15:11:26;26.60;92.80
57026;DHT22;43961;52.940;6.834;2023-06-26T15:13:52;26.70;92.90
57026;DHT22;43961;52.940;6.834;2023-06-26T15:16:17;26.40;93.00
57026;DHT22;43961;52.940;6.834;2023-06-26T15:18:43;26.40;93.10
57026;DHT22;43961;52.940;6.834;2023-06-26T15:21:09;26.40;93.10
57026;DHT22;43961;52.940;6.834;2023-06-26T15:23:35;26.30;93.00
57026;DHT22;43961;52.940;6.834;2023-06-26T15:26:02;26.20;93.30
57026;DHT22;43961;52.940;6.834;2023-06-26T15:28:27;26.30;93.40
57026;DHT22;43961;52.940;6.834;2023-06-26T15:30:53;26.20;93.40
57026;DHT22;43961;52.940;6.834;2023-06-26T15:33:19;26.20;93.60
57026;DHT22;43961;52.940;6.834;2023-06-26T15:35:44;26.20;93.10
57026;DHT22;43961;52.940;6.834;2023-06-26T15:38:11;26.10;92.70
57026;DHT22;43961;52.940;6.834;2023-06-26T15:40:36;25.90;92.60
57026;DHT22;43961;52.940;6.834;2023-06-26T15:43:02;25.90;92.80
57026;DHT22;43961;52.940;6.834;2023-06-26T15:45:29;25.90;93.00